sensor_id;sensor_type;location;lat;lon;timestamp;temperature;humidity
13322;DHT22;6730;46.248;6.930;2023-06-10T00:01:29;19.80;99.90
13322;DHT22;6730;46.248;6.930;2023-06-10T00:03:56;19.80;99.90
13322;DHT22;6730;46.248;6.930;2023-06-10T00:06:22;19.60;99.90
13322;DHT22;6730;46.248;6.930;2023-06-10T00:08:50;19.70;99.90
13322;DHT22;6730;46.248;6.930;2023-06-10T00:11:16;19.90;99.90
13322;DHT22;6730;46.248;6.930;2023-06-10T00:13:41;19.90;99.90
13322;DHT22;6730;46.248;6.930;2023-06-10T00:16:07;19.90;99.90
13322;DHT22;6730;46.248;6.930;2023-06-10T00:18:33;20.10;99.90
13322;DHT22;6730;46.248;6.930;2023-06-10T00:20:58;20.10;99.90
13322;DHT22;6730;46.248;6.930;2023-06-10T00:23:30;20.10;99.90
13322;DHT22;6730;46.248;6.930;2023-06-10T00:25:58;20.10;99.90
13322;DHT22;6730;46.248;6.930;2023-06-10T00:28:24;20.20;99.90
13322;DHT22;6730;46.248;6.930;2023-06-10T00:30:51;20.30;99.90
13322;DHT22;6730;46.248;6.930;2023-06-10T00:33:16;20.40;99.90
13322;DHT22;6730;46.248;6.930;2023-06-10T00:35:42;20.40;99.90
13322;DHT22;6730;46.248;6.930;2023-06-10T00:38:08;20.30;99.90
13322;DHT22;6730;46.248;6.930;2023-06-10T00:40:39;19.90;99.90
13322;DHT22;6730;46.248;6.930;2023-06-10T00:43:05;19.90;99.90
13322;DHT22;6730;46.248;6.930;2023-06-10T00:45:31;20.00;99.90
13322;DHT22;6730;46.248;6.930;2023-06-10T00:47:58;20.00;99.90
13322;DHT22;6730;46.248;6.930;2023-06-10T00:50:24;20.20;99.90
13322;DHT22;6730;46.248;6.930;2023-06-10T00:52:50;20.30;99.90
13322;DHT22;6730;46.248;6.930;2023-06-10T00:55:17;20.10;99.90
13322;DHT22;6730;46.248;6.930;2023-06-10T00:57:45;20.20;99.90
13322;DHT22;6730;46.248;6.930;2023-06-10T01:00:12;20.10;99.90
13322;DHT22;6730;46.248;6.930;2023-06-10T01:02:37;20.20;99.90
13322;DHT22;6730;46.248;6.930;2023-06-10T01:05:03;20.20;99.90
13322;DHT22;6730;46.248;6.930;2023-06-10T01:10:44;19.90;99.90
13322;DHT22;6730;46.248;6.930;2023-06-10T01:13:11;19.60;99.90
13322;DHT22;6730;46.248;6.930;2023-06-10T01:15:38;19.70;99.90
13322;DHT22;6730;46.248;6.930;2023-06-10T01:18:06;19.70;99.90
13322;DHT22;6730;46.248;6.930;2023-06-10T01:20:34;19.70;99.90
13322;DHT22;6730;46.248;6.930;2023-06-10T01:23:04;18.90;99.90
13322;DHT22;6730;46.248;6.930;2023-06-10T01:25:30;18.10;99.90
13322;DHT22;6730;46.248;6.930;2023-06-10T01:30:55;17.40;99.90
13322;DHT22;6730;46.248;6.930;2023-06-10T01:33:27;17.00;99.90
13322;DHT22;6730;46.248;6.930;2023-06-10T01:35:58;17.60;99.90
13322;DHT22;6730;46.248;6.930;2023-06-10T01:38:26;18.20;99.90
13322;DHT22;6730;46.248;6.930;2023-06-10T01:40:53;18.50;99.90
13322;DHT22;6730;46.248;6.930;2023-06-10T01:43:21;18.40;99.90
13322;DHT22;6730;46.248;6.930;2023-06-10T01:45:46;17.20;99.90
13322;DHT22;6730;46.248;6.930;2023-06-10T01:48:12;16.50;99.90
13322;DHT22;6730;46.248;6.930;2023-06-10T01:50:38;16.60;99.90
13322;DHT22;6730;46.248;6.930;2023-06-10T01:53:04;17.10;99.90
13322;DHT22;6730;46.248;6.930;2023-06-10T01:55:31;17.60;99.90
13322;DHT22;6730;46.248;6.930;2023-06-10T01:57:57;18.00;99.90
13322;DHT22;6730;46.248;6.930;2023-06-10T02:00:22;18.10;99.90
13322;DHT22;6730;46.248;6.930;2023-06-10T02:02:48;17.90;99.90
13322;DHT22;6730;46.248;6.930;2023-06-10T02:05:14;17.30;99.90
13322;DHT22;6730;46.248;6.930;2023-06-10T02:07:39;16.90;99.90
13322;DHT22;6730;46.248;6.930;2023-06-10T02:10:06;16.90;99.90
13322;DHT22;6730;46.248;6.930;2023-06-10T02:12:32;17.30;99.90
13322;DHT22;6730;46.248;6.930;2023-06-10T02:14:57;17.70;99.90
13322;DHT22;6730;46.248;6.930;2023-06-10T02:17:23;18.00;99.90
13322;DHT22;6730;46.248;6.930;2023-06-10T02:19:49;18.10;99.90
13322;DHT22;6730;46.248;6.930;2023-06-10T02:22:22;18.10;99.90
13322;DHT22;6730;46.248;6.930;2023-06-10T02:24:48;18.00;99.90
13322;DHT22;6730;46.248;6.930;2023-06-10T02:27:18;18.30;99.90
13322;DHT22;6730;46.248;6.930;2023-06-10T02:29:44;18.30;99.90
13322;DHT22;6730;46.248;6.930;2023-06-10T02:32:09;18.30;99.90
13322;DHT22;6730;46.248;6.930;2023-06-10T02:34:35;18.60;99.90
13322;DHT22;6730;46.248;6.930;2023-06-10T02:37:02;18.70;99.90
13322;DHT22;6730;46.248;6.930;2023-06-10T02:39:28;18.80;99.90
13322;DHT22;6730;46.248;6.930;2023-06-10T02:41:53;18.70;99.90
13322;DHT22;6730;46.248;6.930;2023-06-10T02:44:19;18.80;99.90
13322;DHT22;6730;46.248;6.930;2023-06-10T02:46:45;18.90;99.90
13322;DHT22;6730;46.248;6.930;2023-06-10T02:49:11;18.90;99.90
13322;DHT22;6730;46.248;6.930;2023-06-10T02:51:38;18.70;99.90
13322;DHT22;6730;46.248;6.930;2023-06-10T02:54:04;18.30;99.90
13322;DHT22;6730;46.248;6.930;2023-06-10T02:56:31;18.30;99.90
13322;DHT22;6730;46.248;6.930;2023-06-10T02:58:58;18.50;99.90
13322;DHT22;6730;46.248;6.930;2023-06-10T03:01:24;18.50;99.90
13322;DHT22;6730;46.248;6.930;2023-06-10T03:03:49;18.20;99.90
13322;DHT22;6730;46.248;6.930;2023-06-10T03:06:16;17.70;99.90
13322;DHT22;6730;46.248;6.930;2023-06-10T03:08:42;17.30;99.90
13322;DHT22;6730;46.248;6.930;2023-06-10T03:11:08;17.50;99.90
13322;DHT22;6730;46.248;6.930;2023-06-10T03:13:34;17.50;99.90
13322;DHT22;6730;46.248;6.930;2023-06-10T03:15:59;17.60;99.90
13322;DHT22;6730;46.248;6.930;2023-06-10T03:18:27;18.00;99.90
13322;DHT22;6730;46.248;6.930;2023-06-10T03:20:53;18.10;99.90
13322;DHT22;6730;46.248;6.930;2023-06-10T03:23:19;18.00;99.90
13322;DHT22;6730;46.248;6.930;2023-06-10T03:25:45;17.80;99.90
13322;DHT22;6730;46.248;6.930;2023-06-10T03:28:11;17.60;99.90
13322;DHT22;6730;46.248;6.930;2023-06-10T03:30:36;17.70;99.90
13322;DHT22;6730;46.248;6.930;2023-06-10T03:33:02;17.70;99.90
13322;DHT22;6730;46.248;6.930;2023-06-10T03:35:29;17.90;99.90
13322;DHT22;6730;46.248;6.930;2023-06-10T03:37:54;17.90;99.90
13322;DHT22;6730;46.248;6.930;2023-06-10T03:40:20;18.00;99.90
13322;DHT22;6730;46.248;6.930;2023-06-10T03:42:46;17.90;99.90
13322;DHT22;6730;46.248;6.930;2023-06-10T03:45:11;17.90;99.90
13322;DHT22;6730;46.248;6.930;2023-06-10T03:47:38;17.80;99.90
13322;DHT22;6730;46.248;6.930;2023-06-10T03:50:07;17.80;99.90
13322;DHT22;6730;46.248;6.930;2023-06-10T03:52:33;18.10;99.90
13322;DHT22;6730;46.248;6.930;2023-06-10T03:54:59;18.20;99.90
13322;DHT22;6730;46.248;6.930;2023-06-10T03:57:25;18.20;99.90
13322;DHT22;6730;46.248;6.930;2023-06-10T03:59:51;18.20;99.90
13322;DHT22;6730;46.248;6.930;2023-06-10T04:02:17;18.00;99.90
13322;DHT22;6730;46.248;6.930;2023-06-10T04:04:43;17.80;99.90
13322;DHT22;6730;46.248;6.930;2023-06-10T04:07:09;17.50;99.90
13322;DHT22;6730;46.248;6.930;2023-06-10T04:09:35;17.40;99.90
13322;DHT22;6730;46.248;6.930;2023-06-10T04:12:04;17.60;99.90
13322;DHT22;6730;46.248;6.930;2023-06-10T04:14:33;17.90;99.90
13322;DHT22;6730;46.248;6.930;2023-06-10T04:17:01;18.00;99.90
13322;DHT22;6730;46.248;6.930;2023-06-10T04:19:27;18.10;99.90
13322;DHT22;6730;46.248;6.930;2023-06-10T04:21:53;18.20;99.90
13322;DHT22;6730;46.248;6.930;2023-06-10T04:24:19;18.10;99.90
13322;DHT22;6730;46.248;6.930;2023-06-10T04:26:45;18.00;99.90
13322;DHT22;6730;46.248;6.930;2023-06-10T04:29:13;18.00;99.90
13322;DHT22;6730;46.248;6.930;2023-06-10T04:31:39;17.90;99.90
13322;DHT22;6730;46.248;6.930;2023-06-10T04:34:04;17.90;99.90
13322;DHT22;6730;46.248;6.930;2023-06-10T04:36:30;17.60;99.90
13322;DHT22;6730;46.248;6.930;2023-06-10T04:38:55;17.60;99.90
13322;DHT22;6730;46.248;6.930;2023-06-10T04:41:21;17.90;99.90
13322;DHT22;6730;46.248;6.930;2023-06-10T04:43:47;18.00;99.90
13322;DHT22;6730;46.248;6.930;2023-06-10T04:46:13;18.10;99.90
13322;DHT22;6730;46.248;6.930;2023-06-10T04:48:39;18.20;99.90
13322;DHT22;6730;46.248;6.930;2023-06-10T04:51:05;18.30;99.90
13322;DHT22;6730;46.248;6.930;2023-06-10T04:53:31;18.30;99.90
13322;DHT22;6730;46.248;6.930;2023-06-10T04:55:57;18.30;99.90
13322;DHT22;6730;46.248;6.930;2023-06-10T04:58:23;18.20;99.90
13322;DHT22;6730;46.248;6.930;2023-06-10T05:00:49;18.40;99.90
13322;DHT22;6730;46.248;6.930;2023-06-10T05:03:15;18.50;99.90
13322;DHT22;6730;46.248;6.930;2023-06-10T05:05:41;18.50;99.90
13322;DHT22;6730;46.248;6.930;2023-06-10T05:08:06;18.70;99.90
13322;DHT22;6730;46.248;6.930;2023-06-10T05:10:32;18.90;99.90
13322;DHT22;6730;46.248;6.930;2023-06-10T05:12:59;19.00;99.90
13322;DHT22;6730;46.248;6.930;2023-06-10T05:15:25;18.90;99.90
13322;DHT22;6730;46.248;6.930;2023-06-10T05:17:50;18.80;99.90
13322;DHT22;6730;46.248;6.930;2023-06-10T05:20:17;18.80;99.90
13322;DHT22;6730;46.248;6.930;2023-06-10T05:22:44;18.60;99.90
13322;DHT22;6730;46.248;6.930;2023-06-10T05:25:10;18.40;99.90
13322;DHT22;6730;46.248;6.930;2023-06-10T05:27:35;18.20;99.90
13322;DHT22;6730;46.248;6.930;2023-06-10T05:30:02;18.10;99.90
13322;DHT22;6730;46.248;6.930;2023-06-10T05:32:29;18.00;99.90
13322;DHT22;6730;46.248;6.930;2023-06-10T05:34:54;18.10;99.90
13322;DHT22;6730;46.248;6.930;2023-06-10T05:37:20;18.40;99.90
13322;DHT22;6730;46.248;6.930;2023-06-10T05:39:46;18.60;99.90
13322;DHT22;6730;46.248;6.930;2023-06-10T05:42:11;18.60;99.90
13322;DHT22;6730;46.248;6.930;2023-06-10T05:44:37;18.40;99.90
13322;DHT22;6730;46.248;6.930;2023-06-10T05:47:03;18.60;99.90
13322;DHT22;6730;46.248;6.930;2023-06-10T05:49:29;18.60;99.90
13322;DHT22;6730;46.248;6.930;2023-06-10T05:51:54;18.60;99.90
13322;DHT22;6730;46.248;6.930;2023-06-10T05:54:21;18.50;99.90
13322;DHT22;6730;46.248;6.930;2023-06-10T05:56:47;18.50;99.90
13322;DHT22;6730;46.248;6.930;2023-06-10T05:59:13;18.50;99.90
13322;DHT22;6730;46.248;6.930;2023-06-10T06:01:39;18.50;99.90
13322;DHT22;6730;46.248;6.930;2023-06-10T06:04:05;18.40;99.90
13322;DHT22;6730;46.248;6.930;2023-06-10T06:06:30;18.20;99.90
13322;DHT22;6730;46.248;6.930;2023-06-10T06:08:56;18.40;99.90
13322;DHT22;6730;46.248;6.930;2023-06-10T06:11:22;18.50;99.90
13322;DHT22;6730;46.248;6.930;2023-06-10T06:13:47;18.50;99.90
13322;DHT22;6730;46.248;6.930;2023-06-10T06:16:13;17.90;99.90
13322;DHT22;6730;46.248;6.930;2023-06-10T06:18:39;17.40;99.90
13322;DHT22;6730;46.248;6.930;2023-06-10T06:21:05;17.60;99.90
13322;DHT22;6730;46.248;6.930;2023-06-10T06:23:30;17.90;99.90
13322;DHT22;6730;46.248;6.930;2023-06-10T06:25:56;18.00;99.90
13322;DHT22;6730;46.248;6.930;2023-06-10T06:28:22;18.30;99.90
13322;DHT22;6730;46.248;6.930;2023-06-10T06:30:48;18.30;99.90
13322;DHT22;6730;46.248;6.930;2023-06-10T06:33:14;18.20;99.90
13322;DHT22;6730;46.248;6.930;2023-06-10T06:35:39;18.30;99.90
13322;DHT22;6730;46.248;6.930;2023-06-10T06:38:05;18.40;99.90
13322;DHT22;6730;46.248;6.930;2023-06-10T06:40:31;18.40;99.90
13322;DHT22;6730;46.248;6.930;2023-06-10T06:42:57;18.80;99.90
13322;DHT22;6730;46.248;6.930;2023-06-10T06:45:22;18.90;99.90
13322;DHT22;6730;46.248;6.930;2023-06-10T06:47:48;18.80;99.90
13322;DHT22;6730;46.248;6.930;2023-06-10T06:50:14;19.00;99.90
13322;DHT22;6730;46.248;6.930;2023-06-10T06:52:39;18.90;99.90
13322;DHT22;6730;46.248;6.930;2023-06-10T06:55:05;18.90;99.90
13322;DHT22;6730;46.248;6.930;2023-06-10T06:57:31;18.80;99.90
13322;DHT22;6730;46.248;6.930;2023-06-10T06:59:57;18.80;99.90
13322;DHT22;6730;46.248;6.930;2023-06-10T07:02:23;18.50;99.90
13322;DHT22;6730;46.248;6.930;2023-06-10T07:04:49;18.40;99.90
13322;DHT22;6730;46.248;6.930;2023-06-10T07:07:15;18.00;99.90
13322;DHT22;6730;46.248;6.930;2023-06-10T07:09:41;18.00;99.90
13322;DHT22;6730;46.248;6.930;2023-06-10T07:12:07;18.00;99.90
13322;DHT22;6730;46.248;6.930;2023-06-10T07:14:33;17.40;99.90
13322;DHT22;6730;46.248;6.930;2023-06-10T07:16:58;16.90;99.90
13322;DHT22;6730;46.248;6.930;2023-06-10T07:19:24;16.50;99.90
13322;DHT22;6730;46.248;6.930;2023-06-10T07:21:50;16.40;99.90
13322;DHT22;6730;46.248;6.930;2023-06-10T07:24:15;16.20;99.90
13322;DHT22;6730;46.248;6.930;2023-06-10T07:26:41;16.30;99.90
13322;DHT22;6730;46.248;6.930;2023-06-10T07:29:07;16.50;99.90
13322;DHT22;6730;46.248;6.930;2023-06-10T07:31:32;16.60;99.90
13322;DHT22;6730;46.248;6.930;2023-06-10T07:33:58;16.40;99.90
13322;DHT22;6730;46.248;6.930;2023-06-10T07:36:24;16.30;99.90
13322;DHT22;6730;46.248;6.930;2023-06-10T07:38:53;16.40;99.90
13322;DHT22;6730;46.248;6.930;2023-06-10T07:41:18;16.60;99.90
13322;DHT22;6730;46.248;6.930;2023-06-10T07:43:46;16.80;99.90
13322;DHT22;6730;46.248;6.930;2023-06-10T07:46:12;16.90;99.90
13322;DHT22;6730;46.248;6.930;2023-06-10T07:48:37;17.00;99.90
13322;DHT22;6730;46.248;6.930;2023-06-10T07:51:03;17.00;99.90
13322;DHT22;6730;46.248;6.930;2023-06-10T07:53:29;17.10;99.90
13322;DHT22;6730;46.248;6.930;2023-06-10T07:55:55;17.00;99.90
13322;DHT22;6730;46.248;6.930;2023-06-10T07:58:20;17.20;99.90
13322;DHT22;6730;46.248;6.930;2023-06-10T08:00:47;17.30;99.90
13322;DHT22;6730;46.248;6.930;2023-06-10T08:03:13;17.20;99.90
13322;DHT22;6730;46.248;6.930;2023-06-10T08:05:39;17.20;99.90
13322;DHT22;6730;46.248;6.930;2023-06-10T08:08:05;17.10;99.90
13322;DHT22;6730;46.248;6.930;2023-06-10T08:10:31;17.20;99.90
13322;DHT22;6730;46.248;6.930;2023-06-10T08:12:57;17.30;99.90
13322;DHT22;6730;46.248;6.930;2023-06-10T08:15:22;17.30;99.90
13322;DHT22;6730;46.248;6.930;2023-06-10T08:17:48;17.40;99.90
13322;DHT22;6730;46.248;6.930;2023-06-10T08:20:13;17.40;99.90
13322;DHT22;6730;46.248;6.930;2023-06-10T08:22:40;17.30;99.90
13322;DHT22;6730;46.248;6.930;2023-06-10T08:25:06;17.20;99.90
13322;DHT22;6730;46.248;6.930;2023-06-10T08:27:31;17.20;99.90
13322;DHT22;6730;46.248;6.930;2023-06-10T08:29:57;17.20;99.90
13322;DHT22;6730;46.248;6.930;2023-06-10T08:32:24;17.30;99.90
13322;DHT22;6730;46.248;6.930;2023-06-10T08:34:53;17.30;99.90
13322;DHT22;6730;46.248;6.930;2023-06-10T08:37:18;17.40;99.90
13322;DHT22;6730;46.248;6.930;2023-06-10T08:39:44;17.40;99.90
13322;DHT22;6730;46.248;6.930;2023-06-10T08:42:43;17.40;99.90
13322;DHT22;6730;46.248;6.930;2023-06-10T08:45:18;17.50;99.90
13322;DHT22;6730;46.248;6.930;2023-06-10T08:47:50;17.50;99.90
13322;DHT22;6730;46.248;6.930;2023-06-10T08:50:19;17.40;99.90
13322;DHT22;6730;46.248;6.930;2023-06-10T08:52:48;17.40;99.90
13322;DHT22;6730;46.248;6.930;2023-06-10T08:55:18;17.70;99.90
13322;DHT22;6730;46.248;6.930;2023-06-10T08:57:51;17.70;99.90
13322;DHT22;6730;46.248;6.930;2023-06-10T09:00:18;17.90;99.90
13322;DHT22;6730;46.248;6.930;2023-06-10T09:02:44;18.30;99.90
13322;DHT22;6730;46.248;6.930;2023-06-10T09:05:10;18.20;99.90
13322;DHT22;6730;46.248;6.930;2023-06-10T09:07:36;18.30;99.90
13322;DHT22;6730;46.248;6.930;2023-06-10T09:10:03;18.70;99.90
13322;DHT22;6730;46.248;6.930;2023-06-10T09:12:29;19.00;99.90
13322;DHT22;6730;46.248;6.930;2023-06-10T09:14:55;19.00;99.90
13322;DHT22;6730;46.248;6.930;2023-06-10T09:17:22;18.90;99.90
13322;DHT22;6730;46.248;6.930;2023-06-10T09:19:48;19.10;99.90
13322;DHT22;6730;46.248;6.930;2023-06-10T09:22:14;18.90;99.90
13322;DHT22;6730;46.248;6.930;2023-06-10T09:24:40;18.80;99.90
13322;DHT22;6730;46.248;6.930;2023-06-10T09:27:08;18.90;99.90
13322;DHT22;6730;46.248;6.930;2023-06-10T09:29:54;18.80;99.90
13322;DHT22;6730;46.248;6.930;2023-06-10T09:32:21;19.20;99.90
13322;DHT22;6730;46.248;6.930;2023-06-10T09:34:47;19.80;99.90
13322;DHT22;6730;46.248;6.930;2023-06-10T09:37:14;20.10;99.90
13322;DHT22;6730;46.248;6.930;2023-06-10T09:39:44;20.50;99.90
13322;DHT22;6730;46.248;6.930;2023-06-10T09:42:17;19.70;99.90
13322;DHT22;6730;46.248;6.930;2023-06-10T09:44:50;18.90;99.90
13322;DHT22;6730;46.248;6.930;2023-06-10T09:47:20;18.80;99.90
13322;DHT22;6730;46.248;6.930;2023-06-10T09:49:50;18.80;99.90
13322;DHT22;6730;46.248;6.930;2023-06-10T09:52:27;18.90;99.90
13322;DHT22;6730;46.248;6.930;2023-06-10T09:54:54;19.00;99.90
13322;DHT22;6730;46.248;6.930;2023-06-10T09:57:21;19.30;99.90
13322;DHT22;6730;46.248;6.930;2023-06-10T09:59:47;19.80;99.90
13322;DHT22;6730;46.248;6.930;2023-06-10T10:02:17;20.10;99.90
13322;DHT22;6730;46.248;6.930;2023-06-10T10:04:43;19.70;99.90
13322;DHT22;6730;46.248;6.930;2023-06-10T10:07:10;19.30;99.90
13322;DHT22;6730;46.248;6.930;2023-06-10T10:09:40;19.20;99.90
13322;DHT22;6730;46.248;6.930;2023-06-10T10:12:10;19.30;99.90
13322;DHT22;6730;46.248;6.930;2023-06-10T10:14:37;19.50;99.90
13322;DHT22;6730;46.248;6.930;2023-06-10T10:17:07;19.80;99.90
13322;DHT22;6730;46.248;6.930;2023-06-10T10:19:39;20.20;99.90
13322;DHT22;6730;46.248;6.930;2023-06-10T10:22:08;20.30;99.90
13322;DHT22;6730;46.248;6.930;2023-06-10T10:24:40;20.10;99.90
13322;DHT22;6730;46.248;6.930;2023-06-10T10:27:17;19.80;99.90
13322;DHT22;6730;46.248;6.930;2023-06-10T10:29:46;19.40;99.90
13322;DHT22;6730;46.248;6.930;2023-06-10T10:32:13;19.30;99.90
13322;DHT22;6730;46.248;6.930;2023-06-10T10:34:57;19.40;99.90
13322;DHT22;6730;46.248;6.930;2023-06-10T10:37:24;19.30;99.90
13322;DHT22;6730;46.248;6.930;2023-06-10T10:39:51;19.40;99.90
13322;DHT22;6730;46.248;6.930;2023-06-10T10:42:17;19.20;99.90
13322;DHT22;6730;46.248;6.930;2023-06-10T10:44:44;19.10;99.90
13322;DHT22;6730;46.248;6.930;2023-06-10T10:47:11;19.10;99.90
13322;DHT22;6730;46.248;6.930;2023-06-10T10:49:38;19.10;99.90
13322;DHT22;6730;46.248;6.930;2023-06-10T10:52:04;19.30;99.90
13322;DHT22;6730;46.248;6.930;2023-06-10T10:54:36;19.30;99.90
13322;DHT22;6730;46.248;6.930;2023-06-10T10:57:18;19.50;99.90
13322;DHT22;6730;46.248;6.930;2023-06-10T10:59:57;19.60;99.90
13322;DHT22;6730;46.248;6.930;2023-06-10T11:02:44;19.70;99.90
13322;DHT22;6730;46.248;6.930;2023-06-10T11:05:13;19.90;99.90
13322;DHT22;6730;46.248;6.930;2023-06-10T11:07:39;20.30;99.90
13322;DHT22;6730;46.248;6.930;2023-06-10T11:10:09;20.30;99.90
13322;DHT22;6730;46.248;6.930;2023-06-10T11:12:51;20.50;99.90
13322;DHT22;6730;46.248;6.930;2023-06-10T11:15:28;20.80;99.90
13322;DHT22;6730;46.248;6.930;2023-06-10T11:31:19;20.60;99.90
13322;DHT22;6730;46.248;6.930;2023-06-10T11:33:47;20.40;99.90
13322;DHT22;6730;46.248;6.930;2023-06-10T11:36:14;20.50;99.90
13322;DHT22;6730;46.248;6.930;2023-06-10T11:38:40;20.20;99.90
13322;DHT22;6730;46.248;6.930;2023-06-10T11:41:07;20.20;99.90
13322;DHT22;6730;46.248;6.930;2023-06-10T11:43:33;20.10;99.90
13322;DHT22;6730;46.248;6.930;2023-06-10T11:45:59;20.30;99.90
13322;DHT22;6730;46.248;6.930;2023-06-10T11:48:25;20.00;99.90
13322;DHT22;6730;46.248;6.930;2023-06-10T11:50:53;19.90;99.90
13322;DHT22;6730;46.248;6.930;2023-06-10T11:53:19;20.30;99.90
13322;DHT22;6730;46.248;6.930;2023-06-10T11:55:46;20.70;99.90
13322;DHT22;6730;46.248;6.930;2023-06-10T11:58:20;20.90;99.90
13322;DHT22;6730;46.248;6.930;2023-06-10T12:00:49;21.10;99.90
13322;DHT22;6730;46.248;6.930;2023-06-10T12:03:16;21.00;99.90
13322;DHT22;6730;46.248;6.930;2023-06-10T12:05:58;20.90;99.90
13322;DHT22;6730;46.248;6.930;2023-06-10T12:08:25;20.80;99.90
13322;DHT22;6730;46.248;6.930;2023-06-10T12:10:51;21.00;99.90
13322;DHT22;6730;46.248;6.930;2023-06-10T12:13:17;21.30;99.90
13322;DHT22;6730;46.248;6.930;2023-06-10T12:15:44;21.30;99.90
13322;DHT22;6730;46.248;6.930;2023-06-10T12:18:22;21.20;99.90
13322;DHT22;6730;46.248;6.930;2023-06-10T12:20:48;20.80;99.90
13322;DHT22;6730;46.248;6.930;2023-06-10T12:23:16;21.10;99.90
13322;DHT22;6730;46.248;6.930;2023-06-10T12:25:54;21.30;99.90
13322;DHT22;6730;46.248;6.930;2023-06-10T12:28:24;20.50;99.90
13322;DHT22;6730;46.248;6.930;2023-06-10T12:30:50;20.10;99.90
13322;DHT22;6730;46.248;6.930;2023-06-10T12:33:20;19.90;99.90
13322;DHT22;6730;46.248;6.930;2023-06-10T12:35:52;19.70;99.90
13322;DHT22;6730;46.248;6.930;2023-06-10T12:38:25;19.80;99.90
13322;DHT22;6730;46.248;6.930;2023-06-10T12:40:54;19.60;99.90
13322;DHT22;6730;46.248;6.930;2023-06-10T12:43:26;19.60;99.90
13322;DHT22;6730;46.248;6.930;2023-06-10T12:45:52;20.00;99.90
13322;DHT22;6730;46.248;6.930;2023-06-10T12:48:20;20.10;99.90
13322;DHT22;6730;46.248;6.930;2023-06-10T12:50:51;19.90;99.90
13322;DHT22;6730;46.248;6.930;2023-06-10T12:53:18;20.00;99.90
13322;DHT22;6730;46.248;6.930;2023-06-10T12:55:45;20.20;99.90
13322;DHT22;6730;46.248;6.930;2023-06-10T12:58:11;20.40;99.90
13322;DHT22;6730;46.248;6.930;2023-06-10T13:00:37;20.70;99.90
13322;DHT22;6730;46.248;6.930;2023-06-10T13:03:03;20.60;99.90
13322;DHT22;6730;46.248;6.930;2023-06-10T13:05:31;20.70;99.90
13322;DHT22;6730;46.248;6.930;2023-06-10T13:07:57;20.90;99.90
13322;DHT22;6730;46.248;6.930;2023-06-10T13:10:23;20.90;99.90
13322;DHT22;6730;46.248;6.930;2023-06-10T13:12:50;21.30;99.90
13322;DHT22;6730;46.248;6.930;2023-06-10T13:15:16;21.70;99.90
13322;DHT22;6730;46.248;6.930;2023-06-10T13:17:43;21.80;99.90
13322;DHT22;6730;46.248;6.930;2023-06-10T13:20:09;21.90;99.90
13322;DHT22;6730;46.248;6.930;2023-06-10T13:22:35;22.10;99.90
13322;DHT22;6730;46.248;6.930;2023-06-10T13:25:05;21.90;99.90
13322;DHT22;6730;46.248;6.930;2023-06-10T13:27:35;22.00;99.90
13322;DHT22;6730;46.248;6.930;2023-06-10T13:30:03;22.10;99.90
13322;DHT22;6730;46.248;6.930;2023-06-10T13:32:29;22.30;99.90
13322;DHT22;6730;46.248;6.930;2023-06-10T13:34:55;22.40;99.90
13322;DHT22;6730;46.248;6.930;2023-06-10T13:37:22;21.70;99.90
13322;DHT22;6730;46.248;6.930;2023-06-10T13:39:48;21.10;99.90
13322;DHT22;6730;46.248;6.930;2023-06-10T13:42:18;21.10;99.90
13322;DHT22;6730;46.248;6.930;2023-06-10T13:44:44;21.40;99.90
13322;DHT22;6730;46.248;6.930;2023-06-10T13:47:10;21.80;99.90
13322;DHT22;6730;46.248;6.930;2023-06-10T13:49:36;22.00;99.90
13322;DHT22;6730;46.248;6.930;2023-06-10T13:52:02;22.10;99.90
13322;DHT22;6730;46.248;6.930;2023-06-10T13:54:28;22.30;99.90
13322;DHT22;6730;46.248;6.930;2023-06-10T13:56:53;22.50;99.90
13322;DHT22;6730;46.248;6.930;2023-06-10T13:59:20;22.60;99.90
13322;DHT22;6730;46.248;6.930;2023-06-10T14:01:46;22.80;99.90
13322;DHT22;6730;46.248;6.930;2023-06-10T14:04:12;23.00;99.90
13322;DHT22;6730;46.248;6.930;2023-06-10T14:06:38;22.80;99.90
13322;DHT22;6730;46.248;6.930;2023-06-10T14:09:04;22.00;99.90
13322;DHT22;6730;46.248;6.930;2023-06-10T14:11:30;21.70;99.90
13322;DHT22;6730;46.248;6.930;2023-06-10T14:13:57;21.70;99.90
13322;DHT22;6730;46.248;6.930;2023-06-10T14:16:26;21.30;99.90
13322;DHT22;6730;46.248;6.930;2023-06-10T14:18:51;21.20;99.90
13322;DHT22;6730;46.248;6.930;2023-06-10T14:21:17;21.00;99.90
13322;DHT22;6730;46.248;6.930;2023-06-10T14:23:43;21.00;99.90
13322;DHT22;6730;46.248;6.930;2023-06-10T14:26:09;20.90;99.90
13322;DHT22;6730;46.248;6.930;2023-06-10T14:28:35;20.90;99.90
13322;DHT22;6730;46.248;6.930;2023-06-10T14:31:01;21.10;99.90
13322;DHT22;6730;46.248;6.930;2023-06-10T14:33:26;21.30;99.90
13322;DHT22;6730;46.248;6.930;2023-06-10T14:35:52;21.00;99.90
13322;DHT22;6730;46.248;6.930;2023-06-10T14:38:18;20.80;99.90
13322;DHT22;6730;46.248;6.930;2023-06-10T14:40:44;20.80;99.90
13322;DHT22;6730;46.248;6.930;2023-06-10T14:43:09;20.80;99.90
13322;DHT22;6730;46.248;6.930;2023-06-10T14:45:44;20.80;99.90
13322;DHT22;6730;46.248;6.930;2023-06-10T14:48:11;20.90;99.90
13322;DHT22;6730;46.248;6.930;2023-06-10T14:50:38;21.30;99.90
13322;DHT22;6730;46.248;6.930;2023-06-10T14:53:04;21.20;99.90
13322;DHT22;6730;46.248;6.930;2023-06-10T14:55:29;21.20;99.90
13322;DHT22;6730;46.248;6.930;2023-06-10T14:57:55;21.20;99.90
13322;DHT22;6730;46.248;6.930;2023-06-10T15:00:23;21.20;99.90
13322;DHT22;6730;46.248;6.930;2023-06-10T15:02:50;21.40;99.90
13322;DHT22;6730;46.248;6.930;2023-06-10T15:05:16;21.20;99.90
13322;DHT22;6730;46.248;6.930;2023-06-10T15:07:43;20.90;99.90
13322;DHT22;6730;46.248;6.930;2023-06-10T15:10:09;20.90;99.90
13322;DHT22;6730;46.248;6.930;2023-06-10T15:12:35;20.80;99.90
13322;DHT22;6730;46.248;6.930;2023-06-10T15:15:01;20.80;99.90
13322;DHT22;6730;46.248;6.930;2023-06-10T15:17:27;20.60;99.90
13322;DHT22;6730;46.248;6.930;2023-06-10T15:19:53;20.60;99.90
13322;DHT22;6730;46.248;6.930;2023-06-10T15:22:19;20.50;99.90
13322;DHT22;6730;46.248;6.930;2023-06-10T15:24:44;20.50;99.90
13322;DHT22;6730;46.248;6.930;2023-06-10T15:27:10;20.60;99.90
13322;DHT22;6730;46.248;6.930;2023-06-10T15:29:36;20.80;99.90
13322;DHT22;6730;46.248;6.930;2023-06-10T15:32:01;20.70;99.90
13322;DHT22;6730;46.248;6.930;2023-06-10T15:34:27;20.80;99.90
13322;DHT22;6730;46.248;6.930;2023-06-10T15:36:52;21.30;99.90
13322;DHT22;6730;46.248;6.930;2023-06-10T15:39:18;21.80;99.90
13322;DHT22;6730;46.248;6.930;2023-06-10T15:41:44;21.90;99.90
13322;DHT22;6730;46.248;6.930;2023-06-10T15:44:10;22.00;99.90
13322;DHT22;6730;46.248;6.930;2023-06-10T15:46:36;22.50;99.90
13322;DHT22;6730;46.248;6.930;2023-06-10T15:49:02;22.70;99.90
13322;DHT22;6730;46.248;6.930;2023-06-10T15:51:28;22.80;99.90
13322;DHT22;6730;46.248;6.930;2023-06-10T15:53:54;23.00;99.90
13322;DHT22;6730;46.248;6.930;2023-06-10T15:56:20;23.20;99.90
13322;DHT22;6730;46.248;6.930;2023-06-10T15:58:46;23.40;99.90
13322;DHT22;6730;46.248;6.930;2023-06-10T16:01:12;23.50;99.90
13322;DHT22;6730;46.248;6.930;2023-06-10T16:03:40;23.80;99.90